Time;durP1;ratioP1;P1;durP2;ratioP2;P2;SDS_P1;SDS_P2;PMS_P1;PMS_P2;Temp;Humidity;BMP_temperature;BMP_pressure;BME280_temperature;BME280_humidity;BME280_pressure;Samples;Min_cycle;Max_cycle;Signal;HPM_P1;HPM_P2
2021/08/20 00:02:03;;;;;;;30.38;14.38;;;;;;;13.49;100.00;101624.84;5079247;28;20102;-70
2021/08/20 00:04:31;;;;;;;30.10;14.38;;;;;;;13.48;100.00;101628.44;5078982;28;20064;-72
2021/08/20 00:06:59;;;;;;;25.67;14.05;;;;;;;13.52;100.00;101627.41;5080990;28;20056;-71
2021/08/20 00:09:28;;;;;;;29.02;14.45;;;;;;;13.51;100.00;101620.31;5079821;28;20385;-70
2021/08/20 00:11:57;;;;;;;28.02;14.77;;;;;;;13.54;100.00;101612.16;5079593;28;20044;-70
2021/08/20 00:14:25;;;;;;;26.85;14.30;;;;;;;13.56;100.00;101618.34;5075666;28;20167;-70
2021/08/20 00:16:52;;;;;;;25.90;14.02;;;;;;;13.55;100.00;101613.91;5079224;28;20052;-70
2021/08/20 00:19:20;;;;;;;31.45;14.48;;;;;;;13.56;100.00;101611.19;5076696;28;20067;-70
2021/08/20 00:21:48;;;;;;;29.45;16.15;;;;;;;13.58;100.00;101608.44;5079936;28;20066;-72
2021/08/20 00:24:16;;;;;;;28.90;14.05;;;;;;;13.57;100.00;101609.38;5081815;28;20067;-72
2021/08/20 00:26:45;;;;;;;27.17;14.18;;;;;;;13.53;100.00;101607.72;5076391;28;20055;-72
2021/08/20 00:29:13;;;;;;;26.83;12.93;;;;;;;13.52;100.00;101612.22;5080063;28;20491;-72
2021/08/20 00:31:41;;;;;;;26.23;12.98;;;;;;;13.51;100.00;101601.53;5077462;28;20226;-71
2021/08/20 00:34:09;;;;;;;30.58;14.50;;;;;;;13.48;100.00;101599.81;5078209;28;20385;-72
2021/08/20 00:36:37;;;;;;;28.77;14.48;;;;;;;13.49;100.00;101598.91;5077796;28;20064;-71
2021/08/20 00:39:04;;;;;;;29.42;15.25;;;;;;;13.48;100.00;101599.81;5080209;28;20051;-71
2021/08/20 00:41:33;;;;;;;27.45;14.23;;;;;;;13.48;100.00;101610.53;5077519;28;20406;-71
2021/08/20 00:44:02;;;;;;;28.17;14.40;;;;;;;13.49;100.00;101606.06;5079713;28;20092;-72
2021/08/20 00:46:30;;;;;;;31.40;14.90;;;;;;;13.50;100.00;101605.13;5077125;28;20110;-72
2021/08/20 00:48:58;;;;;;;28.95;15.30;;;;;;;13.51;100.00;101609.59;5077563;28;20471;-72
2021/08/20 00:51:27;;;;;;;31.08;15.20;;;;;;;13.50;100.00;101608.72;5076699;28;20109;-72
2021/08/20 00:53:56;;;;;;;26.83;15.95;;;;;;;13.49;100.00;101612.31;5079023;28;20072;-70
2021/08/20 00:56:24;;;;;;;31.55;15.02;;;;;;;13.52;100.00;101606.84;5078541;28;20072;-70
2021/08/20 00:58:52;;;;;;;31.63;15.10;;;;;;;13.49;100.00;101608.75;5077572;28;20113;-70
2021/08/20 01:01:22;;;;;;;31.63;15.57;;;;;;;13.50;100.00;101597.09;5077308;28;20499;-71
2021/08/20 01:03:50;;;;;;;31.63;16.63;;;;;;;13.54;100.00;101609.50;5077268;28;20122;-70
2021/08/20 01:06:17;;;;;;;31.10;15.40;;;;;;;13.57;100.00;101606.69;5078246;28;20091;-72
2021/08/20 01:08:45;;;;;;;30.75;16.38;;;;;;;13.63;100.00;101595.78;5075687;28;20114;-72
2021/08/20 01:11:13;;;;;;;32.92;15.13;;;;;;;13.63;100.00;101595.78;5078639;28;20064;-72
2021/08/20 01:13:43;;;;;;;29.52;15.60;;;;;;;13.70;100.00;101589.28;5076145;28;20171;-72
2021/08/20 01:16:11;;;;;;;31.70;16.42;;;;;;;13.75;100.00;101581.94;5078260;28;20136;-71
2021/08/20 01:18:42;;;;;;;32.75;16.27;;;;;;;13.75;100.00;101586.44;5081672;28;20075;-71
2021/08/20 01:21:11;;;;;;;31.38;16.17;;;;;;;13.82;100.00;101579.94;5084215;28;20056;-71
2021/08/20 01:23:40;;;;;;;35.70;16.83;;;;;;;13.90;100.00;101580.56;5079193;28;20565;-71
2021/08/20 01:26:09;;;;;;;32.92;15.95;;;;;;;13.97;100.00;101576.72;5083191;28;20040;-71
2021/08/20 01:28:37;;;;;;;35.97;16.75;;;;;;;14.01;100.00;101585.53;5078714;28;20370;-72
2021/08/20 01:31:07;;;;;;;35.28;16.30;;;;;;;14.06;100.00;101585.41;5082714;28;20330;-71
2021/08/20 01:33:35;;;;;;;34.28;16.92;;;;;;;14.12;100.00;101591.44;5079867;28;20578;-71
2021/08/20 01:36:03;;;;;;;33.85;16.33;;;;;;;14.18;100.00;101582.28;5084358;28;20519;-71
2021/08/20 01:38:31;;;;;;;38.25;18.25;;;;;;;14.19;100.00;101581.34;5082794;28;20068;-71
2021/08/20 01:40:59;;;;;;;31.75;16.35;;;;;;;14.20;100.00;101586.66;5081454;28;20064;-71
2021/08/20 01:43:28;;;;;;;32.22;16.55;;;;;;;14.28;100.00;101585.50;5084058;28;20048;-71
2021/08/20 01:45:55;;;;;;;36.20;16.60;;;;;;;14.30;100.00;101587.22;5080433;28;20144;-72
2021/08/20 01:48:23;;;;;;;41.78;18.38;;;;;;;14.34;100.00;101588.84;5082494;28;20063;-72
2021/08/20 01:50:51;;;;;;;35.22;16.70;;;;;;;14.36;100.00;101573.56;5082776;28;20125;-71
2021/08/20 01:53:18;;;;;;;28.40;15.30;;;;;;;14.39;100.00;101581.50;5081107;28;20607;-71
2021/08/20 01:55:48;;;;;;;30.65;15.93;;;;;;;14.47;100.00;101583.94;5080541;28;20056;-72
2021/08/20 01:58:17;;;;;;;39.10;17.70;;;;;;;14.51;100.00;101588.25;5079313;28;20064;-73
2021/08/20 02:00:46;;;;;;;32.40;15.38;;;;;;;14.52;100.00;101576.59;5078480;28;20113;-73
2021/08/20 02:03:14;;;;;;;30.25;15.48;;;;;;;14.54;100.00;101582.78;5078424;28;20089;-73
2021/08/20 02:05:42;;;;;;;32.67;15.55;;;;;;;14.59;100.00;101582.63;5080411;28;20552;-73
2021/08/20 02:08:10;;;;;;;28.77;15.30;;;;;;;14.58;100.00;101583.53;5081920;28;20068;-73
2021/08/20 02:10:37;;;;;;;34.33;16.35;;;;;;;14.61;100.00;101577.19;5079349;28;20109;-73
2021/08/20 02:13:05;;;;;;;33.20;16.33;;;;;;;14.61;100.00;101577.19;5083071;28;20271;-73
2021/08/20 02:15:34;;;;;;;30.95;15.77;;;;;;;14.64;100.00;101579.75;5079144;28;20074;-73
2021/08/20 02:18:03;;;;;;;31.10;14.40;;;;;;;14.65;100.00;101582.41;5081560;28;20064;-74
2021/08/20 02:20:31;;;;;;;29.73;15.20;;;;;;;14.68;100.00;101579.59;5078712;28;20064;-73
2021/08/20 02:22:59;;;;;;;32.15;16.02;;;;;;;14.73;100.00;101576.75;5074957;28;20195;-73
2021/08/20 02:25:27;;;;;;;32.95;16.80;;;;;;;14.75;100.00;101581.13;5083295;28;20060;-73
2021/08/20 02:27:54;;;;;;;31.55;14.70;;;;;;;14.77;100.00;101582.88;5077080;28;20296;-73
2021/08/20 02:30:22;;;;;;;35.28;15.82;;;;;;;14.80;100.00;101582.78;5080755;28;20155;-73
2021/08/20 02:32:50;;;;;;;35.40;16.83;;;;;;;14.81;100.00;101590.75;5079233;28;20055;-73
2021/08/20 02:35:23;;;;;;;29.08;14.68;;;;;;;14.80;100.00;101586.31;5079716;28;20096;-73
2021/08/20 02:37:52;;;;;;;32.15;15.68;;;;;;;14.83;100.00;101591.59;5080273;28;21015;-73
2021/08/20 02:40:19;;;;;;;33.40;15.85;;;;;;;14.83;100.00;101590.69;5077227;28;20072;-73
2021/08/20 02:42:47;;;;;;;34.70;16.25;;;;;;;14.83;100.00;101586.22;5082976;28;20471;-73
2021/08/20 02:45:16;;;;;;;30.50;14.90;;;;;;;14.85;100.00;101581.66;5078951;28;20060;-73
2021/08/20 02:47:43;;;;;;;35.00;15.80;;;;;;;14.85;100.00;101576.28;5080212;28;20063;-73
2021/08/20 02:50:11;;;;;;;35.10;15.93;;;;;;;14.85;100.00;101570.03;5084164;28;20055;-71
2021/08/20 02:52:41;;;;;;;35.55;15.68;;;;;;;14.85;100.00;101570.03;5077267;28;20485;-71
2021/08/20 02:55:10;;;;;;;38.28;17.52;;;;;;;14.86;100.00;101569.09;5083761;28;20449;-71
2021/08/20 02:57:38;;;;;;;37.00;17.30;;;;;;;14.81;100.00;101566.56;5078367;28;20070;-71
2021/08/20 03:00:07;;;;;;;36.35;16.75;;;;;;;14.83;100.00;101571.88;5082241;28;20060;-72
2021/08/20 03:02:35;;;;;;;35.15;16.48;;;;;;;14.80;100.00;101569.34;5077056;28;20110;-71
2021/08/20 03:05:04;;;;;;;34.58;15.52;;;;;;;14.77;100.00;101559.56;5078922;28;20074;-72
2021/08/20 03:07:32;;;;;;;35.80;15.77;;;;;;;14.82;100.00;101565.63;5083205;28;20125;-71
2021/08/20 03:10:01;;;;;;;30.98;15.95;;;;;;;14.80;100.00;101563.97;5076987;28;20066;-71
2021/08/20 03:12:29;;;;;;;34.22;15.85;;;;;;;14.79;100.00;101557.69;5082001;28;20405;-70
2021/08/20 03:14:56;;;;;;;36.15;16.80;;;;;;;14.81;100.00;101555.81;5079318;28;20319;-70
2021/08/20 03:17:24;;;;;;;36.28;16.45;;;;;;;14.85;100.00;101554.78;5080938;28;20435;-72
2021/08/20 03:19:52;;;;;;;33.97;16.58;;;;;;;14.88;100.00;101560.03;5079796;28;20052;-71
2021/08/20 03:22:19;;;;;;;35.78;16.05;;;;;;;14.87;100.00;101555.59;5077378;28;20088;-70
2021/08/20 03:24:47;;;;;;;31.85;15.20;;;;;;;14.90;100.00;101560.00;5082415;28;20071;-71
2021/08/20 03:27:17;;;;;;;33.38;15.32;;;;;;;14.89;100.00;101555.53;5077220;28;20150;-71
2021/08/20 03:29:45;;;;;;;36.25;17.92;;;;;;;14.91;100.00;101561.72;5082114;28;20461;-72
2021/08/20 03:32:12;;;;;;;37.22;17.20;;;;;;;14.94;100.00;101551.72;5078559;28;20059;-69
2021/08/20 03:34:40;;;;;;;40.78;18.10;;;;;;;14.89;100.00;101553.72;5079393;28;20079;-71
2021/08/20 03:37:08;;;;;;;35.67;16.42;;;;;;;14.93;100.00;101562.53;5081379;28;20142;-70
2021/08/20 03:39:36;;;;;;;35.15;16.38;;;;;;;14.91;100.00;101556.34;5077030;28;20488;-72
2021/08/20 03:42:05;;;;;;;38.85;15.90;;;;;;;14.93;100.00;101555.38;5080068;28;20064;-70
2021/08/20 03:44:34;;;;;;;35.95;16.45;;;;;;;14.93;100.00;101558.06;5076159;28;20068;-70
2021/08/20 03:47:02;;;;;;;35.03;14.80;;;;;;;14.94;100.00;101561.59;5077772;28;20047;-70
2021/08/20 03:49:30;;;;;;;37.13;15.75;;;;;;;14.87;100.00;101563.66;5079060;28;20105;-70
2021/08/20 03:51:57;;;;;;;34.33;14.05;;;;;;;14.82;100.00;101560.28;5078734;28;20070;-70
2021/08/20 03:54:26;;;;;;;31.33;14.55;;;;;;;14.86;100.00;101564.56;5082239;28;20060;-70
2021/08/20 03:56:53;;;;;;;31.23;14.43;;;;;;;14.86;100.00;101567.25;5079549;28;20343;-70
2021/08/20 03:59:21;;;;;;;27.20;13.48;;;;;;;14.87;100.00;101566.34;5079768;28;20109;-70
2021/08/20 04:01:50;;;;;;;32.25;13.68;;;;;;;14.83;100.00;101562.03;5078922;28;20064;-70
2021/08/20 04:04:18;;;;;;;27.30;13.95;;;;;;;14.87;100.00;101565.47;5077937;28;20066;-70
2021/08/20 04:06:46;;;;;;;30.15;12.43;;;;;;;14.86;100.00;101572.63;5081001;28;20064;-71
2021/08/20 04:09:14;;;;;;;28.25;12.63;;;;;;;14.90;100.00;101574.28;5076960;28;20052;-70
2021/08/20 04:11:41;;;;;;;25.45;12.60;;;;;;;14.92;100.00;101575.09;5081629;28;20072;-70
2021/08/20 04:14:09;;;;;;;28.80;12.38;;;;;;;15.02;100.00;101577.44;5077246;28;20447;-70
2021/08/20 04:16:37;;;;;;;29.02;13.75;;;;;;;15.04;100.00;101584.50;5077781;28;20276;-70
2021/08/20 04:19:07;;;;;;;23.50;11.07;;;;;;;15.08;100.00;101578.06;5079317;28;20048;-71
2021/08/20 04:21:40;;;;;;;33.13;13.88;;;;;;;15.13;100.00;101580.56;5076406;28;20063;-70
2021/08/20 04:24:12;;;;;;;27.30;10.93;;;;;;;15.12;100.00;101578.84;5081720;28;20064;-70
2021/08/20 04:26:40;;;;;;;24.85;11.32;;;;;;;15.19;100.00;101582.13;5074921;28;20147;-70
2021/08/20 04:29:08;;;;;;;25.30;11.45;;;;;;;15.23;100.00;101576.59;5080731;28;20060;-70
2021/08/20 04:31:36;;;;;;;25.02;10.27;;;;;;;15.23;100.00;101573.88;5076333;28;20141;-70
2021/08/20 04:34:04;;;;;;;23.90;9.32;;;;;;;15.26;100.00;101587.22;5078187;28;20340;-70
2021/08/20 04:36:33;;;;;;;22.77;9.02;;;;;;;15.28;100.00;101589.84;5081024;28;20477;-70
2021/08/20 04:39:01;;;;;;;17.70;7.88;;;;;;;15.31;100.00;101589.72;5076301;28;20060;-70
2021/08/20 04:41:28;;;;;;;21.08;8.70;;;;;;;15.35;100.00;101593.16;5078263;28;20068;-70
2021/08/20 04:43:57;;;;;;;19.42;8.60;;;;;;;15.37;100.00;101597.53;5077178;28;20463;-70
2021/08/20 04:46:25;;;;;;;16.33;7.13;;;;;;;15.39;100.00;101595.69;5080112;28;20063;-72
2021/08/20 04:48:53;;;;;;;14.57;7.05;;;;;;;15.48;100.00;101602.50;5080158;28;20064;-71
2021/08/20 04:51:20;;;;;;;19.42;6.97;;;;;;;15.46;100.00;101597.19;5078640;28;20141;-72
2021/08/20 04:53:51;;;;;;;13.07;5.90;;;;;;;15.50;100.00;101600.63;5083085;28;20165;-71
2021/08/20 04:56:19;;;;;;;13.77;5.80;;;;;;;15.55;100.00;101600.44;5082300;28;20056;-72
2021/08/20 04:58:47;;;;;;;13.57;6.28;;;;;;;15.61;100.00;101602.84;5082091;28;20162;-72
2021/08/20 05:01:16;;;;;;;13.63;6.25;;;;;;;15.64;100.00;101606.28;5083971;28;20063;-71
2021/08/20 05:03:44;;;;;;;11.35;5.20;;;;;;;15.67;100.00;101616.06;5081770;28;20072;-71
2021/08/20 05:06:13;;;;;;;9.77;4.95;;;;;;;15.66;100.00;101606.22;5084522;28;20036;-71
2021/08/20 05:08:41;;;;;;;13.13;5.53;;;;;;;15.67;100.00;101603.47;5081518;28;20109;-73
2021/08/20 05:11:11;;;;;;;15.85;5.55;;;;;;;15.67;100.00;101613.38;5084188;28;20055;-72
2021/08/20 05:13:39;;;;;;;11.48;6.03;;;;;;;15.68;100.00;101616.00;5081383;28;20385;-72
2021/08/20 05:16:07;;;;;;;18.02;6.40;;;;;;;15.65;100.00;101618.81;5084075;28;20456;-72
2021/08/20 05:18:35;;;;;;;15.05;6.95;;;;;;;15.66;100.00;101614.31;5083270;28;20068;-71
2021/08/20 05:21:02;;;;;;;15.25;8.05;;;;;;;15.67;100.00;101616.94;5080877;28;20049;-74
2021/08/20 05:23:30;;;;;;;19.80;7.50;;;;;;;15.67;100.00;101616.06;5084342;28;20717;-74
2021/08/20 05:25:58;;;;;;;14.07;6.93;;;;;;;15.71;100.00;101624.88;5081057;28;20094;-73
2021/08/20 05:28:27;;;;;;;15.07;7.18;;;;;;;15.69;100.00;101612.34;5081346;28;20064;-74
2021/08/20 05:30:55;;;;;;;15.45;6.90;;;;;;;15.71;100.00;101625.75;5083088;28;20438;-71
2021/08/20 05:33:23;;;;;;;16.35;7.47;;;;;;;15.73;100.00;101623.00;5077977;28;20067;-73
2021/08/20 05:35:50;;;;;;;14.68;7.32;;;;;;;15.74;100.00;101630.16;5085614;28;20067;-73
2021/08/20 05:38:18;;;;;;;13.85;7.60;;;;;;;15.79;100.00;101637.13;5082216;28;20060;-72
2021/08/20 05:40:46;;;;;;;12.52;6.75;;;;;;;15.86;100.00;101643.13;5082319;28;20191;-73
2021/08/20 05:43:14;;;;;;;17.88;7.72;;;;;;;15.90;100.00;101646.56;5080949;28;20125;-72
2021/08/20 05:45:43;;;;;;;16.38;6.53;;;;;;;15.91;100.00;101642.94;5082462;28;20068;-71
2021/08/20 05:48:11;;;;;;;14.32;6.05;;;;;;;15.94;100.00;101646.38;5082431;28;20448;-71
2021/08/20 05:50:39;;;;;;;12.95;5.88;;;;;;;15.96;100.00;101643.63;5081370;28;20056;-71
2021/08/20 05:53:07;;;;;;;13.07;5.90;;;;;;;15.97;100.00;101645.34;5082262;28;20063;-71
2021/08/20 05:55:35;;;;;;;12.95;5.30;;;;;;;16.01;100.00;101644.31;5081839;28;20072;-71
2021/08/20 05:58:04;;;;;;;15.95;7.07;;;;;;;16.07;100.00;101649.41;5081313;28;20064;-71
2021/08/20 06:00:32;;;;;;;16.33;6.22;;;;;;;16.15;100.00;101649.97;5082727;28;20344;-71
2021/08/20 06:03:02;;;;;;;17.27;6.80;;;;;;;16.22;100.00;101648.75;5081736;28;20108;-71
2021/08/20 06:05:30;;;;;;;17.38;8.23;;;;;;;16.29;100.00;101654.75;5083009;28;20162;-73
2021/08/20 06:07:58;;;;;;;21.48;9.18;;;;;;;16.33;100.00;101652.78;5081104;28;20421;-72
2021/08/20 06:10:26;;;;;;;26.05;10.43;;;;;;;16.35;100.00;101642.84;5081649;28;20068;-71
2021/08/20 06:12:54;;;;;;;32.58;16.08;;;;;;;16.39;100.00;101648.03;5080470;28;20093;-71
2021/08/20 06:15:23;;;;;;;43.05;20.92;;;;;;;16.43;100.00;101644.28;5081078;28;20083;-71
2021/08/20 06:17:50;;;;;;;45.20;22.10;;;;;;;16.52;100.00;101647.50;5079383;28;20098;-71
2021/08/20 06:20:19;;;;;;;43.05;22.60;;;;;;;16.58;100.00;101658.00;5082693;28;20118;-72
2021/08/20 06:22:47;;;;;;;50.83;25.35;;;;;;;16.57;100.00;101654.44;5082094;28;20052;-71
2021/08/20 06:25:15;;;;;;;56.08;26.92;;;;;;;16.57;100.00;101661.66;5079599;28;20071;-71
2021/08/20 06:27:43;;;;;;;47.53;24.65;;;;;;;16.60;100.00;101661.50;5083588;28;20328;-71
2021/08/20 06:30:11;;;;;;;39.13;20.73;;;;;;;16.53;100.00;101662.72;5083271;28;20071;-71
2021/08/20 06:32:39;;;;;;;35.90;17.25;;;;;;;16.55;100.00;101660.81;5080553;28;20181;-71
2021/08/20 06:35:08;;;;;;;29.83;15.10;;;;;;;16.60;100.00;101658.78;5080318;28;20044;-73
2021/08/20 06:37:37;;;;;;;29.08;12.63;;;;;;;16.68;100.00;101663.84;5081565;28;21331;-75
2021/08/20 06:40:06;;;;;;;30.35;13.77;;;;;;;16.84;100.00;101659.56;5081103;28;20063;-74
2021/08/20 06:42:34;;;;;;;24.95;11.25;;;;;;;17.07;100.00;101663.88;5081641;28;20089;-75
2021/08/20 06:45:02;;;;;;;22.40;11.32;;;;;;;17.24;100.00;101655.00;5082634;28;20155;-74
2021/08/20 06:47:30;;;;;;;23.77;8.93;;;;;;;17.40;100.00;101657.88;5083696;28;20458;-75
2021/08/20 06:49:58;;;;;;;18.48;9.13;;;;;;;17.74;100.00;101662.50;5079715;28;20105;-74
2021/08/20 06:52:26;;;;;;;19.70;9.88;;;;;;;17.97;100.00;101665.06;5085185;28;20064;-75
2021/08/20 06:54:58;;;;;;;20.95;9.30;;;;;;;17.69;100.00;101661.84;5078906;28;20064;-74
2021/08/20 06:57:26;;;;;;;18.67;9.73;;;;;;;17.59;100.00;101670.44;5081118;28;20916;-75
2021/08/20 06:59:54;;;;;;;23.88;10.18;;;;;;;17.51;100.00;101679.81;5079488;28;20458;-74
2021/08/20 07:02:22;;;;;;;21.13;10.23;;;;;;;17.40;100.00;101678.56;5078960;28;20064;-73
2021/08/20 07:04:50;;;;;;;22.30;10.68;;;;;;;17.36;100.00;101669.75;5079420;28;20351;-73
2021/08/20 07:07:18;;;;;;;20.67;10.90;;;;;;;17.25;100.00;101675.66;5079649;28;20064;-73
2021/08/20 07:09:45;;;;;;;24.63;11.55;;;;;;;17.17;100.00;101676.00;5080086;28;20321;-73
2021/08/20 07:12:14;;;;;;;20.27;11.00;;;;;;;17.18;100.00;101683.16;5078013;28;20137;-73
2021/08/20 07:14:42;;;;;;;23.40;10.90;;;;;;;17.22;100.00;101683.00;5082731;28;20459;-73
2021/08/20 07:17:10;;;;;;;22.55;11.50;;;;;;;17.27;100.00;101681.84;5077848;28;20113;-74
2021/08/20 07:19:37;;;;;;;24.58;10.45;;;;;;;17.33;100.00;101684.25;5081337;28;20048;-73
2021/08/20 07:22:05;;;;;;;22.23;10.82;;;;;;;17.44;100.00;101677.50;5080932;28;20112;-72
2021/08/20 07:24:33;;;;;;;22.05;10.65;;;;;;;17.51;100.00;101681.63;5082120;28;20845;-72
2021/08/20 07:27:01;;;;;;;22.48;10.32;;;;;;;17.51;100.00;101678.94;5079326;28;20064;-72
2021/08/20 07:29:30;;;;;;;20.25;10.75;;;;;;;17.51;100.00;101682.50;5079590;28;20469;-72
2021/08/20 07:31:58;;;;;;;23.48;10.93;;;;;;;17.66;100.00;101677.34;5079873;28;20501;-72
2021/08/20 07:34:25;;;;;;;20.83;10.93;;;;;;;17.72;100.00;101683.31;5080169;28;20060;-72
2021/08/20 07:36:53;;;;;;;20.60;9.80;;;;;;;17.84;100.00;101689.94;5080156;28;20044;-74
2021/08/20 07:39:21;;;;;;;21.92;9.52;;;;;;;17.85;99.53;101686.25;5079225;28;20178;-74
2021/08/20 07:41:49;;;;;;;17.58;9.88;;;;;;;17.88;99.25;101679.88;5080919;28;20672;-74
2021/08/20 07:44:16;;;;;;;21.40;9.30;;;;;;;17.91;98.56;101677.91;5080727;28;20101;-74
2021/08/20 07:46:45;;;;;;;17.77;8.40;;;;;;;17.93;97.22;101677.84;5079346;28;20138;-74
2021/08/20 07:49:14;;;;;;;17.20;7.93;;;;;;;18.04;97.45;101682.69;5079956;28;20071;-74
2021/08/20 07:51:41;;;;;;;16.80;8.55;;;;;;;17.95;95.51;101683.16;5078235;28;20065;-74
2021/08/20 07:54:09;;;;;;;18.30;7.75;;;;;;;18.10;95.36;101688.66;5082279;28;20071;-74
2021/08/20 07:56:37;;;;;;;12.88;7.13;;;;;;;18.11;94.22;101690.38;5081343;28;20099;-74
2021/08/20 07:59:05;;;;;;;16.08;7.30;;;;;;;18.15;94.50;101685.72;5079865;28;20105;-75
2021/08/20 08:01:32;;;;;;;14.40;7.65;;;;;;;18.32;93.80;101690.28;5081116;28;20108;-75
2021/08/20 08:04:02;;;;;;;16.20;8.48;;;;;;;18.94;91.23;101693.34;5077383;28;20516;-73
2021/08/20 08:06:30;;;;;;;19.98;8.75;;;;;;;18.88;91.29;101693.66;5081814;28;20422;-73
2021/08/20 08:08:58;;;;;;;25.33;9.02;;;;;;;19.51;88.90;101684.84;5078189;28;20070;-73
2021/08/20 08:11:30;;;;;;;18.38;9.13;;;;;;;19.71;86.81;101693.63;5079488;28;20112;-73
2021/08/20 08:14:03;;;;;;;20.55;10.02;;;;;;;19.64;87.49;101698.53;5083743;28;20125;-72
2021/08/20 08:16:31;;;;;;;20.05;10.48;;;;;;;19.99;86.63;101695.69;5076844;28;20067;-72
2021/08/20 08:19:02;;;;;;;18.02;8.63;;;;;;;20.55;85.50;101698.69;5081695;28;20075;-72
2021/08/20 08:21:30;;;;;;;18.00;9.30;;;;;;;19.86;85.61;101706.34;5077086;28;20105;-72
2021/08/20 08:23:58;;;;;;;18.75;10.20;;;;;;;19.68;84.63;101702.81;5081097;28;20052;-73
2021/08/20 08:26:26;;;;;;;17.25;10.50;;;;;;;19.28;85.38;101709.59;5080197;28;20095;-73
2021/08/20 08:28:54;;;;;;;17.77;9.50;;;;;;;19.95;84.23;101699.50;5080129;28;20064;-72
2021/08/20 08:31:22;;;;;;;17.27;9.30;;;;;;;20.21;83.63;101702.53;5083226;28;20062;-72
2021/08/20 08:33:51;;;;;;;17.98;10.15;;;;;;;19.48;84.41;101703.94;5076506;28;20266;-73
2021/08/20 08:36:21;;;;;;;17.08;10.23;;;;;;;20.13;83.39;101701.16;5082438;28;20064;-72
2021/08/20 08:38:49;;;;;;;16.65;9.57;;;;;;;20.28;81.72;101707.50;5078290;28;20053;-72
2021/08/20 08:41:19;;;;;;;17.83;9.00;;;;;;;19.68;82.86;101708.25;5080357;28;20087;-73
2021/08/20 08:43:47;;;;;;;15.45;8.95;;;;;;;19.76;82.42;101705.97;5081836;28;20048;-73
2021/08/20 08:46:20;;;;;;;16.15;9.18;;;;;;;19.42;82.16;101710.56;5075451;28;20109;-72
2021/08/20 08:48:48;;;;;;;12.30;8.23;;;;;;;19.97;83.25;101711.13;5081451;28;20059;-72
2021/08/20 08:51:18;;;;;;;15.05;8.90;;;;;;;20.67;80.34;101713.34;5077696;28;20301;-72
2021/08/20 08:53:47;;;;;;;17.00;8.73;;;;;;;20.34;79.44;101711.69;5080536;28;20111;-72
2021/08/20 08:56:19;;;;;;;15.52;8.35;;;;;;;20.98;79.52;101706.91;5081133;28;20068;-74
2021/08/20 08:58:47;;;;;;;15.00;7.47;;;;;;;20.61;78.16;101709.16;5078328;28;20064;-74
2021/08/20 09:01:37;;;;;;;11.07;6.40;;;;;;;21.94;77.11;101707.13;5079906;28;20090;-74
2021/08/20 09:04:11;;;;;;;9.48;5.38;;;;;;;22.05;72.61;101708.25;5078648;28;20125;-75
2021/08/20 09:06:41;;;;;;;12.55;6.35;;;;;;;21.34;75.36;101705.56;5080250;28;20377;-74
2021/08/20 09:09:11;;;;;;;15.38;8.13;;;;;;;21.09;75.06;101714.38;5078836;28;20064;-74
2021/08/20 09:11:40;;;;;;;15.27;9.82;;;;;;;20.77;76.63;101710.94;5078832;28;20064;-74
2021/08/20 09:14:10;;;;;;;14.68;10.35;;;;;;;20.70;76.39;101718.59;5078746;28;20068;-74
2021/08/20 09:16:40;;;;;;;14.98;10.05;;;;;;;21.05;77.42;101718.25;5080003;28;20288;-74
2021/08/20 09:19:12;;;;;;;16.42;11.00;;;;;;;21.02;76.33;101719.31;5078409;28;20137;-74
2021/08/20 09:21:40;;;;;;;18.17;9.85;;;;;;;21.00;74.82;101718.53;5076766;28;20064;-74
2021/08/20 09:24:31;;;;;;;16.60;9.55;;;;;;;21.91;71.07;101722.75;5079605;28;20063;-75
2021/08/20 09:27:24;;;;;;;12.63;8.23;;;;;;;22.44;71.14;101721.03;5076746;28;20093;-74
2021/08/20 09:30:04;;;;;;;15.13;10.07;;;;;;;22.44;70.10;101714.72;5082916;28;20056;-75
2021/08/20 09:32:31;;;;;;;13.38;8.75;;;;;;;22.89;69.24;101726.09;5078708;28;20064;-75
2021/08/20 09:35:00;;;;;;;13.18;8.38;;;;;;;22.97;69.36;101729.16;5079367;28;20071;-75
2021/08/20 09:37:28;;;;;;;13.45;8.35;;;;;;;23.13;67.47;101718.94;5075233;28;20056;-74
2021/08/20 09:40:06;;;;;;;12.98;9.57;;;;;;;22.81;66.85;101726.63;5082889;28;20067;-75
2021/08/20 09:42:35;;;;;;;17.10;9.80;;;;;;;22.02;70.43;101726.50;5083101;28;20750;-74
2021/08/20 09:45:13;;;;;;;15.85;10.05;;;;;;;22.24;68.24;101730.50;5079554;28;20091;-74
2021/08/20 09:48:06;;;;;;;14.80;10.13;;;;;;;23.01;67.11;101727.97;5084963;28;20589;-74
2021/08/20 09:50:41;;;;;;;16.75;9.40;;;;;;;23.12;66.58;101716.34;5081071;28;20060;-74
2021/08/20 09:53:13;;;;;;;16.92;9.57;;;;;;;23.11;66.82;101730.94;5084372;28;20060;-74
2021/08/20 09:55:44;;;;;;;14.50;10.25;;;;;;;23.43;64.99;101735.94;5082022;28;20159;-74
2021/08/20 09:58:13;;;;;;;12.38;7.97;;;;;;;23.20;64.86;101729.41;5083373;28;20071;-73
2021/08/20 10:00:42;;;;;;;12.63;6.70;;;;;;;23.55;63.81;101723.25;5082958;28;20068;-74
2021/08/20 10:03:14;;;;;;;11.40;6.82;;;;;;;23.04;63.32;101732.31;5078943;28;20066;-74
2021/08/20 10:05:43;;;;;;;12.90;7.07;;;;;;;23.31;63.37;101730.38;5082833;28;20692;-75
2021/08/20 10:08:13;;;;;;;14.77;8.23;;;;;;;23.46;64.01;101732.97;5078626;28;20070;-74
2021/08/20 10:10:46;;;;;;;13.93;9.45;;;;;;;23.53;63.66;101733.38;5080956;28;20631;-74
2021/08/20 10:13:16;;;;;;;13.63;7.13;;;;;;;23.14;63.77;101730.72;5079109;28;20335;-75
2021/08/20 10:15:45;;;;;;;13.23;6.28;;;;;;;23.89;63.59;101734.41;5081005;28;20361;-75
2021/08/20 10:18:15;;;;;;;11.82;5.65;;;;;;;24.07;61.33;101733.03;5083505;28;20540;-76
2021/08/20 10:20:44;;;;;;;10.63;5.30;;;;;;;24.40;60.23;101734.22;5077988;28;20075;-75
2021/08/20 10:23:15;;;;;;;11.65;6.00;;;;;;;24.95;60.06;101731.78;5082215;28;20549;-76
2021/08/20 10:25:45;;;;;;;9.38;5.55;;;;;;;24.94;58.21;101736.38;5080607;28;20139;-73
2021/08/20 10:28:14;;;;;;;8.63;4.80;;;;;;;24.59;58.94;101742.72;5083368;28;20105;-73
2021/08/20 10:30:44;;;;;;;8.88;5.50;;;;;;;24.67;58.36;101744.00;5081835;28;20064;-73
2021/08/20 10:33:12;;;;;;;10.00;6.53;;;;;;;25.03;57.70;101740.25;5081945;28;20691;-73
2021/08/20 10:35:52;;;;;;;13.07;8.07;;;;;;;24.61;57.83;101739.88;5086039;28;20071;-74
2021/08/20 10:38:35;;;;;;;13.10;9.52;;;;;;;24.76;59.01;101740.56;5080335;28;20068;-76
2021/08/20 10:41:16;;;;;;;12.77;9.40;;;;;;;24.99;60.04;101736.00;5082828;28;20086;-76
2021/08/20 10:43:58;;;;;;;15.00;8.13;;;;;;;25.68;58.10;101738.66;5081992;28;20229;-77
2021/08/20 10:47:02;;;;;;;12.65;7.78;;;;;;;24.21;61.35;101743.78;5084199;28;20074;-76
2021/08/20 10:49:43;;;;;;;13.52;8.15;;;;;;;24.12;61.23;101741.75;5045104;28;20540;-76
2021/08/20 10:52:25;;;;;;;11.15;7.30;;;;;;;24.28;60.09;101746.03;5084475;28;20450;-76
2021/08/20 10:55:25;;;;;;;10.30;6.13;;;;;;;24.49;59.84;101752.59;5081898;28;20369;-76
2021/08/20 10:57:59;;;;;;;10.50;6.28;;;;;;;25.07;59.81;101739.00;5083716;28;20450;-75
2021/08/20 11:00:29;;;;;;;9.02;4.35;;;;;;;25.37;57.60;101753.06;5079157;28;20090;-76
2021/08/20 11:02:58;;;;;;;8.18;4.60;;;;;;;25.21;56.79;101754.28;5081770;28;20059;-76
2021/08/20 11:05:43;;;;;;;9.40;4.68;;;;;;;25.69;55.66;101754.09;5083223;28;20044;-78
2021/08/20 11:08:39;;;;;;;8.75;4.72;;;;;;;25.08;56.07;101746.22;5080603;28;20082;-75
2021/08/20 11:11:42;;;;;;;7.85;4.15;;;;;;;26.07;55.71;101744.59;5082751;28;20071;-76
2021/08/20 11:14:24;;;;;;;7.55;4.65;;;;;;;25.66;56.03;101746.13;5080139;28;20051;-75
2021/08/20 11:16:52;;;;;;;8.80;4.83;;;;;;;25.40;55.19;101747.38;5084217;28;20059;-76
2021/08/20 11:19:46;;;;;;;11.02;4.68;;;;;;;25.09;57.61;101750.66;5079271;28;20048;-76